sensor_id;sensor_type;location;lat;lon;timestamp;P1;durP1;ratioP1;P2;durP2;ratioP2
13698;SDS011;6921;53.642;9.956;2023-07-30T00:01:46;10.07;;;8.35;;
13698;SDS011;6921;53.642;9.956;2023-07-30T00:03:50;9.90;;;8.73;;
13698;SDS011;6921;53.642;9.956;2023-07-30T00:05:54;9.30;;;8.05;;
13698;SDS011;6921;53.642;9.956;2023-07-30T00:07:58;10.88;;;8.98;;
13698;SDS011;6921;53.642;9.956;2023-07-30T00:10:01;9.55;;;8.57;;
13698;SDS011;6921;53.642;9.956;2023-07-30T00:12:05;10.70;;;8.85;;
13698;SDS011;6921;53.642;9.956;2023-07-30T00:14:09;11.45;;;9.15;;
13698;SDS011;6921;53.642;9.956;2023-07-30T00:16:12;11.65;;;9.80;;
13698;SDS011;6921;53.642;9.956;2023-07-30T00:18:17;10.45;;;9.35;;
13698;SDS011;6921;53.642;9.956;2023-07-30T00:20:21;10.50;;;9.38;;
13698;SDS011;6921;53.642;9.956;2023-07-30T00:22:24;9.98;;;8.98;;
13698;SDS011;6921;53.642;9.956;2023-07-30T00:24:28;9.00;;;8.10;;
13698;SDS011;6921;53.642;9.956;2023-07-30T00:26:33;7.97;;;7.18;;
13698;SDS011;6921;53.642;9.956;2023-07-30T00:28:36;12.02;;;8.32;;
13698;SDS011;6921;53.642;9.956;2023-07-30T00:30:39;7.55;;;6.85;;
13698;SDS011;6921;53.642;9.956;2023-07-30T00:32:43;8.90;;;7.50;;
13698;SDS011;6921;53.642;9.956;2023-07-30T00:34:48;7.72;;;6.90;;
13698;SDS011;6921;53.642;9.956;2023-07-30T00:36:51;8.90;;;7.10;;
13698;SDS011;6921;53.642;9.956;2023-07-30T00:38:55;7.65;;;5.88;;
13698;SDS011;6921;53.642;9.956;2023-07-30T00:40:59;6.20;;;5.63;;
13698;SDS011;6921;53.642;9.956;2023-07-30T00:43:02;6.13;;;5.57;;
13698;SDS011;6921;53.642;9.956;2023-07-30T00:45:06;5.90;;;5.40;;
13698;SDS011;6921;53.642;9.956;2023-07-30T00:47:11;6.50;;;5.30;;
13698;SDS011;6921;53.642;9.956;2023-07-30T00:49:14;6.93;;;5.43;;
13698;SDS011;6921;53.642;9.956;2023-07-30T00:51:21;5.90;;;5.28;;
13698;SDS011;6921;53.642;9.956;2023-07-30T00:53:26;7.28;;;5.20;;
13698;SDS011;6921;53.642;9.956;2023-07-30T00:55:31;5.90;;;5.40;;
13698;SDS011;6921;53.642;9.956;2023-07-30T00:57:36;7.60;;;5.32;;
13698;SDS011;6921;53.642;9.956;2023-07-30T00:59:43;5.90;;;5.30;;
13698;SDS011;6921;53.642;9.956;2023-07-30T01:01:47;6.43;;;5.82;;
13698;SDS011;6921;53.642;9.956;2023-07-30T01:03:51;6.80;;;5.53;;
13698;SDS011;6921;53.642;9.956;2023-07-30T01:05:56;5.47;;;4.90;;
13698;SDS011;6921;53.642;9.956;2023-07-30T01:08:00;6.93;;;5.45;;
13698;SDS011;6921;53.642;9.956;2023-07-30T01:10:05;5.80;;;5.15;;
13698;SDS011;6921;53.642;9.956;2023-07-30T01:12:09;6.45;;;5.50;;
13698;SDS011;6921;53.642;9.956;2023-07-30T01:14:14;5.75;;;5.20;;
13698;SDS011;6921;53.642;9.956;2023-07-30T01:16:20;5.97;;;5.40;;
13698;SDS011;6921;53.642;9.956;2023-07-30T01:18:24;6.70;;;5.57;;
13698;SDS011;6921;53.642;9.956;2023-07-30T01:20:30;6.47;;;5.88;;
13698;SDS011;6921;53.642;9.956;2023-07-30T01:22:35;5.80;;;5.30;;
13698;SDS011;6921;53.642;9.956;2023-07-30T01:24:38;6.13;;;5.53;;
13698;SDS011;6921;53.642;9.956;2023-07-30T01:26:52;8.23;;;5.07;;
13698;SDS011;6921;53.642;9.956;2023-07-30T01:29:00;6.38;;;5.60;;
13698;SDS011;6921;53.642;9.956;2023-07-30T01:31:07;6.00;;;5.32;;
13698;SDS011;6921;53.642;9.956;2023-07-30T01:33:11;5.55;;;5.00;;
13698;SDS011;6921;53.642;9.956;2023-07-30T01:35:15;7.78;;;5.47;;
13698;SDS011;6921;53.642;9.956;2023-07-30T01:37:20;6.68;;;5.60;;
13698;SDS011;6921;53.642;9.956;2023-07-30T01:39:26;6.20;;;5.60;;
13698;SDS011;6921;53.642;9.956;2023-07-30T01:41:30;6.55;;;5.78;;
13698;SDS011;6921;53.642;9.956;2023-07-30T01:43:34;5.68;;;5.18;;
13698;SDS011;6921;53.642;9.956;2023-07-30T01:45:37;6.43;;;5.82;;
13698;SDS011;6921;53.642;9.956;2023-07-30T01:47:42;6.40;;;5.80;;
13698;SDS011;6921;53.642;9.956;2023-07-30T01:49:45;7.03;;;6.38;;
13698;SDS011;6921;53.642;9.956;2023-07-30T01:51:48;6.82;;;6.00;;
13698;SDS011;6921;53.642;9.956;2023-07-30T01:53:52;7.93;;;6.03;;
13698;SDS011;6921;53.642;9.956;2023-07-30T01:55:57;6.40;;;5.80;;
13698;SDS011;6921;53.642;9.956;2023-07-30T01:58:00;6.82;;;6.22;;
13698;SDS011;6921;53.642;9.956;2023-07-30T02:00:03;6.78;;;6.20;;
13698;SDS011;6921;53.642;9.956;2023-07-30T02:02:08;7.45;;;6.75;;
13698;SDS011;6921;53.642;9.956;2023-07-30T02:04:11;6.80;;;6.10;;
13698;SDS011;6921;53.642;9.956;2023-07-30T02:06:14;7.25;;;6.47;;
13698;SDS011;6921;53.642;9.956;2023-07-30T02:08:17;7.07;;;6.38;;
13698;SDS011;6921;53.642;9.956;2023-07-30T02:10:21;8.00;;;6.75;;
13698;SDS011;6921;53.642;9.956;2023-07-30T02:12:27;7.05;;;6.28;;
13698;SDS011;6921;53.642;9.956;2023-07-30T02:14:31;7.15;;;6.45;;
13698;SDS011;6921;53.642;9.956;2023-07-30T02:16:35;7.85;;;6.93;;
13698;SDS011;6921;53.642;9.956;2023-07-30T02:18:38;7.75;;;6.40;;
13698;SDS011;6921;53.642;9.956;2023-07-30T02:20:41;9.15;;;7.43;;
13698;SDS011;6921;53.642;9.956;2023-07-30T02:22:45;9.30;;;7.32;;
13698;SDS011;6921;53.642;9.956;2023-07-30T02:24:49;7.82;;;7.05;;
13698;SDS011;6921;53.642;9.956;2023-07-30T02:26:54;8.25;;;7.43;;
13698;SDS011;6921;53.642;9.956;2023-07-30T02:28:59;7.53;;;6.80;;
13698;SDS011;6921;53.642;9.956;2023-07-30T02:31:02;8.57;;;7.28;;
13698;SDS011;6921;53.642;9.956;2023-07-30T02:33:06;8.85;;;7.95;;
13698;SDS011;6921;53.642;9.956;2023-07-30T02:35:09;8.60;;;7.65;;
13698;SDS011;6921;53.642;9.956;2023-07-30T02:37:15;8.82;;;7.82;;
13698;SDS011;6921;53.642;9.956;2023-07-30T02:39:20;11.00;;;8.48;;
13698;SDS011;6921;53.642;9.956;2023-07-30T02:41:23;11.40;;;9.05;;
13698;SDS011;6921;53.642;9.956;2023-07-30T02:43:26;10.95;;;8.38;;
13698;SDS011;6921;53.642;9.956;2023-07-30T02:45:30;10.27;;;8.70;;
13698;SDS011;6921;53.642;9.956;2023-07-30T02:47:33;10.77;;;8.70;;
13698;SDS011;6921;53.642;9.956;2023-07-30T02:49:36;10.40;;;9.32;;
13698;SDS011;6921;53.642;9.956;2023-07-30T02:51:40;12.60;;;9.23;;
13698;SDS011;6921;53.642;9.956;2023-07-30T02:53:44;10.25;;;9.13;;
13698;SDS011;6921;53.642;9.956;2023-07-30T02:55:49;11.95;;;9.95;;
13698;SDS011;6921;53.642;9.956;2023-07-30T02:57:53;11.55;;;9.23;;
13698;SDS011;6921;53.642;9.956;2023-07-30T02:59:56;13.35;;;10.15;;
13698;SDS011;6921;53.642;9.956;2023-07-30T03:02:02;13.00;;;10.93;;
13698;SDS011;6921;53.642;9.956;2023-07-30T03:04:06;12.48;;;11.07;;
13698;SDS011;6921;53.642;9.956;2023-07-30T03:06:14;14.40;;;11.85;;
13698;SDS011;6921;53.642;9.956;2023-07-30T03:08:18;14.52;;;11.73;;
13698;SDS011;6921;53.642;9.956;2023-07-30T03:10:22;14.23;;;12.40;;
13698;SDS011;6921;53.642;9.956;2023-07-30T03:12:25;14.88;;;11.77;;
13698;SDS011;6921;53.642;9.956;2023-07-30T03:14:29;13.23;;;11.55;;
13698;SDS011;6921;53.642;9.956;2023-07-30T03:16:32;16.27;;;13.15;;
13698;SDS011;6921;53.642;9.956;2023-07-30T03:18:39;15.07;;;13.25;;
13698;SDS011;6921;53.642;9.956;2023-07-30T03:20:42;14.80;;;12.35;;
13698;SDS011;6921;53.642;9.956;2023-07-30T03:22:46;19.13;;;14.00;;
13698;SDS011;6921;53.642;9.956;2023-07-30T03:24:50;16.85;;;13.73;;
13698;SDS011;6921;53.642;9.956;2023-07-30T03:26:55;18.73;;;14.25;;
13698;SDS011;6921;53.642;9.956;2023-07-30T03:28:59;18.23;;;14.43;;
13698;SDS011;6921;53.642;9.956;2023-07-30T03:31:03;18.55;;;14.02;;
13698;SDS011;6921;53.642;9.956;2023-07-30T03:33:08;15.27;;;13.60;;
13698;SDS011;6921;53.642;9.956;2023-07-30T03:35:15;16.05;;;12.65;;
13698;SDS011;6921;53.642;9.956;2023-07-30T03:37:21;17.42;;;14.23;;
13698;SDS011;6921;53.642;9.956;2023-07-30T03:39:24;15.57;;;13.65;;
13698;SDS011;6921;53.642;9.956;2023-07-30T03:41:27;18.73;;;14.43;;
13698;SDS011;6921;53.642;9.956;2023-07-30T03:43:29;21.20;;;14.20;;
13698;SDS011;6921;53.642;9.956;2023-07-30T03:45:33;15.65;;;13.65;;
13698;SDS011;6921;53.642;9.956;2023-07-30T03:47:36;15.70;;;13.18;;
13698;SDS011;6921;53.642;9.956;2023-07-30T03:49:40;18.10;;;13.75;;
13698;SDS011;6921;53.642;9.956;2023-07-30T03:51:48;18.40;;;13.63;;
13698;SDS011;6921;53.642;9.956;2023-07-30T03:53:53;15.77;;;13.48;;
13698;SDS011;6921;53.642;9.956;2023-07-30T03:55:57;17.05;;;13.15;;
13698;SDS011;6921;53.642;9.956;2023-07-30T03:57:59;19.17;;;13.38;;
13698;SDS011;6921;53.642;9.956;2023-07-30T04:00:06;17.55;;;13.68;;
13698;SDS011;6921;53.642;9.956;2023-07-30T04:02:09;17.45;;;13.38;;
13698;SDS011;6921;53.642;9.956;2023-07-30T04:04:17;14.60;;;12.43;;
13698;SDS011;6921;53.642;9.956;2023-07-30T04:06:20;14.43;;;12.88;;
13698;SDS011;6921;53.642;9.956;2023-07-30T04:08:25;16.60;;;13.48;;
13698;SDS011;6921;53.642;9.956;2023-07-30T04:10:28;16.73;;;13.25;;
13698;SDS011;6921;53.642;9.956;2023-07-30T04:12:33;17.65;;;13.80;;
13698;SDS011;6921;53.642;9.956;2023-07-30T04:14:37;16.02;;;13.07;;
13698;SDS011;6921;53.642;9.956;2023-07-30T04:16:43;15.73;;;13.63;;
13698;SDS011;6921;53.642;9.956;2023-07-30T04:18:48;16.02;;;12.90;;
13698;SDS011;6921;53.642;9.956;2023-07-30T04:20:53;19.63;;;14.27;;
13698;SDS011;6921;53.642;9.956;2023-07-30T04:22:57;16.40;;;13.95;;
13698;SDS011;6921;53.642;9.956;2023-07-30T04:25:02;15.57;;;12.82;;
13698;SDS011;6921;53.642;9.956;2023-07-30T04:27:08;18.00;;;13.95;;
13698;SDS011;6921;53.642;9.956;2023-07-30T04:29:12;18.00;;;14.60;;
13698;SDS011;6921;53.642;9.956;2023-07-30T04:31:18;18.30;;;14.60;;
13698;SDS011;6921;53.642;9.956;2023-07-30T04:33:21;18.10;;;14.50;;
13698;SDS011;6921;53.642;9.956;2023-07-30T04:35:24;18.48;;;14.25;;
13698;SDS011;6921;53.642;9.956;2023-07-30T04:37:28;17.73;;;14.10;;
13698;SDS011;6921;53.642;9.956;2023-07-30T04:39:32;19.38;;;15.05;;
13698;SDS011;6921;53.642;9.956;2023-07-30T04:41:39;16.88;;;14.32;;
13698;SDS011;6921;53.642;9.956;2023-07-30T04:43:43;17.38;;;13.68;;
13698;SDS011;6921;53.642;9.956;2023-07-30T04:45:46;18.13;;;14.10;;
13698;SDS011;6921;53.642;9.956;2023-07-30T04:47:49;17.58;;;13.52;;
13698;SDS011;6921;53.642;9.956;2023-07-30T04:49:53;17.65;;;13.93;;
13698;SDS011;6921;53.642;9.956;2023-07-30T04:51:56;17.73;;;13.75;;
13698;SDS011;6921;53.642;9.956;2023-07-30T04:53:59;17.17;;;13.35;;
13698;SDS011;6921;53.642;9.956;2023-07-30T04:56:04;17.00;;;13.02;;
13698;SDS011;6921;53.642;9.956;2023-07-30T04:58:09;15.88;;;12.68;;
13698;SDS011;6921;53.642;9.956;2023-07-30T05:00:13;18.83;;;12.95;;
13698;SDS011;6921;53.642;9.956;2023-07-30T05:02:16;14.80;;;12.15;;
13698;SDS011;6921;53.642;9.956;2023-07-30T05:04:20;15.40;;;11.77;;
13698;SDS011;6921;53.642;9.956;2023-07-30T05:06:22;19.13;;;13.38;;
13698;SDS011;6921;53.642;9.956;2023-07-30T05:08:26;16.75;;;12.18;;
13698;SDS011;6921;53.642;9.956;2023-07-30T05:10:30;14.73;;;11.60;;
13698;SDS011;6921;53.642;9.956;2023-07-30T05:12:34;14.50;;;11.32;;
13698;SDS011;6921;53.642;9.956;2023-07-30T05:14:40;15.77;;;11.05;;
13698;SDS011;6921;53.642;9.956;2023-07-30T05:16:44;16.17;;;11.00;;
13698;SDS011;6921;53.642;9.956;2023-07-30T05:18:49;14.02;;;10.68;;
13698;SDS011;6921;53.642;9.956;2023-07-30T05:20:54;15.40;;;9.93;;
13698;SDS011;6921;53.642;9.956;2023-07-30T05:22:58;14.52;;;10.75;;
13698;SDS011;6921;53.642;9.956;2023-07-30T05:25:03;13.60;;;10.15;;
13698;SDS011;6921;53.642;9.956;2023-07-30T05:27:07;15.52;;;9.75;;
13698;SDS011;6921;53.642;9.956;2023-07-30T05:29:11;11.02;;;9.60;;
13698;SDS011;6921;53.642;9.956;2023-07-30T05:31:16;14.43;;;9.88;;
13698;SDS011;6921;53.642;9.956;2023-07-30T05:33:20;15.75;;;9.55;;
13698;SDS011;6921;53.642;9.956;2023-07-30T05:35:24;14.98;;;10.20;;
13698;SDS011;6921;53.642;9.956;2023-07-30T05:37:29;14.82;;;10.45;;
13698;SDS011;6921;53.642;9.956;2023-07-30T05:39:54;12.45;;;9.23;;
13698;SDS011;6921;53.642;9.956;2023-07-30T05:41:58;14.88;;;9.60;;
13698;SDS011;6921;53.642;9.956;2023-07-30T05:44:03;14.88;;;9.38;;
13698;SDS011;6921;53.642;9.956;2023-07-30T05:46:06;14.27;;;9.00;;
13698;SDS011;6921;53.642;9.956;2023-07-30T05:48:13;13.07;;;9.07;;
13698;SDS011;6921;53.642;9.956;2023-07-30T05:50:15;15.02;;;9.63;;
13698;SDS011;6921;53.642;9.956;2023-07-30T05:52:21;12.38;;;8.77;;
13698;SDS011;6921;53.642;9.956;2023-07-30T05:54:26;14.30;;;9.63;;
13698;SDS011;6921;53.642;9.956;2023-07-30T05:56:32;14.15;;;9.48;;
13698;SDS011;6921;53.642;9.956;2023-07-30T05:58:35;15.68;;;9.60;;
13698;SDS011;6921;53.642;9.956;2023-07-30T06:00:40;16.95;;;9.77;;
13698;SDS011;6921;53.642;9.956;2023-07-30T06:02:58;16.65;;;9.75;;
13698;SDS011;6921;53.642;9.956;2023-07-30T06:05:03;17.95;;;9.57;;
13698;SDS011;6921;53.642;9.956;2023-07-30T06:07:10;15.70;;;9.73;;
13698;SDS011;6921;53.642;9.956;2023-07-30T06:09:13;18.23;;;10.35;;
13698;SDS011;6921;53.642;9.956;2023-07-30T06:11:17;14.30;;;9.43;;
13698;SDS011;6921;53.642;9.956;2023-07-30T06:13:20;21.52;;;11.20;;
13698;SDS011;6921;53.642;9.956;2023-07-30T06:15:23;11.48;;;9.43;;
13698;SDS011;6921;53.642;9.956;2023-07-30T06:17:27;11.93;;;9.38;;
13698;SDS011;6921;53.642;9.956;2023-07-30T06:19:34;13.82;;;10.20;;
13698;SDS011;6921;53.642;9.956;2023-07-30T06:21:38;12.43;;;9.52;;
13698;SDS011;6921;53.642;9.956;2023-07-30T06:23:43;17.17;;;10.35;;
13698;SDS011;6921;53.642;9.956;2023-07-30T06:25:47;18.52;;;9.77;;
13698;SDS011;6921;53.642;9.956;2023-07-30T06:27:51;16.90;;;10.07;;
13698;SDS011;6921;53.642;9.956;2023-07-30T06:29:55;17.92;;;9.82;;
13698;SDS011;6921;53.642;9.956;2023-07-30T06:31:58;20.42;;;9.82;;
13698;SDS011;6921;53.642;9.956;2023-07-30T06:34:01;16.85;;;9.40;;
13698;SDS011;6921;53.642;9.956;2023-07-30T06:36:05;14.40;;;10.05;;
13698;SDS011;6921;53.642;9.956;2023-07-30T06:38:10;16.88;;;9.50;;
13698;SDS011;6921;53.642;9.956;2023-07-30T06:40:13;19.73;;;10.23;;
13698;SDS011;6921;53.642;9.956;2023-07-30T06:42:18;22.25;;;11.15;;
13698;SDS011;6921;53.642;9.956;2023-07-30T06:44:22;18.20;;;11.38;;
13698;SDS011;6921;53.642;9.956;2023-07-30T06:46:29;15.63;;;11.73;;
13698;SDS011;6921;53.642;9.956;2023-07-30T06:48:32;23.50;;;12.00;;
13698;SDS011;6921;53.642;9.956;2023-07-30T06:50:35;16.67;;;12.10;;
13698;SDS011;6921;53.642;9.956;2023-07-30T06:52:39;20.38;;;13.45;;
13698;SDS011;6921;53.642;9.956;2023-07-30T06:54:44;23.20;;;14.95;;
13698;SDS011;6921;53.642;9.956;2023-07-30T06:56:48;22.30;;;14.90;;
13698;SDS011;6921;53.642;9.956;2023-07-30T06:58:51;27.58;;;15.05;;
13698;SDS011;6921;53.642;9.956;2023-07-30T07:00:54;21.30;;;15.00;;
13698;SDS011;6921;53.642;9.956;2023-07-30T07:02:58;20.92;;;14.82;;
13698;SDS011;6921;53.642;9.956;2023-07-30T07:05:01;24.50;;;15.13;;
13698;SDS011;6921;53.642;9.956;2023-07-30T07:07:07;23.98;;;15.75;;
13698;SDS011;6921;53.642;9.956;2023-07-30T07:09:10;21.17;;;14.65;;
13698;SDS011;6921;53.642;9.956;2023-07-30T07:11:33;28.23;;;15.88;;
13698;SDS011;6921;53.642;9.956;2023-07-30T07:13:53;23.10;;;15.65;;
13698;SDS011;6921;53.642;9.956;2023-07-30T07:15:56;24.02;;;16.17;;
13698;SDS011;6921;53.642;9.956;2023-07-30T07:17:59;23.13;;;15.23;;
13698;SDS011;6921;53.642;9.956;2023-07-30T07:20:04;23.77;;;15.27;;
13698;SDS011;6921;53.642;9.956;2023-07-30T07:22:08;19.65;;;14.88;;
13698;SDS011;6921;53.642;9.956;2023-07-30T07:24:14;26.00;;;15.70;;
13698;SDS011;6921;53.642;9.956;2023-07-30T07:26:18;23.00;;;14.77;;
13698;SDS011;6921;53.642;9.956;2023-07-30T07:28:27;23.40;;;13.52;;
13698;SDS011;6921;53.642;9.956;2023-07-30T07:30:30;20.90;;;14.55;;
13698;SDS011;6921;53.642;9.956;2023-07-30T07:32:33;22.42;;;13.85;;
13698;SDS011;6921;53.642;9.956;2023-07-30T07:34:39;19.98;;;14.18;;
13698;SDS011;6921;53.642;9.956;2023-07-30T07:36:42;23.05;;;15.25;;
13698;SDS011;6921;53.642;9.956;2023-07-30T07:38:46;25.27;;;14.07;;
13698;SDS011;6921;53.642;9.956;2023-07-30T07:40:49;20.88;;;13.05;;
13698;SDS011;6921;53.642;9.956;2023-07-30T07:42:52;19.45;;;13.10;;
13698;SDS011;6921;53.642;9.956;2023-07-30T07:44:58;20.73;;;12.65;;
13698;SDS011;6921;53.642;9.956;2023-07-30T07:47:02;20.63;;;12.85;;
13698;SDS011;6921;53.642;9.956;2023-07-30T07:49:06;23.02;;;13.00;;
13698;SDS011;6921;53.642;9.956;2023-07-30T07:51:10;22.98;;;12.07;;
13698;SDS011;6921;53.642;9.956;2023-07-30T07:53:14;20.15;;;12.40;;
13698;SDS011;6921;53.642;9.956;2023-07-30T07:55:17;18.92;;;11.65;;
13698;SDS011;6921;53.642;9.956;2023-07-30T07:57:25;22.10;;;11.20;;
13698;SDS011;6921;53.642;9.956;2023-07-30T07:59:28;15.80;;;10.52;;
13698;SDS011;6921;53.642;9.956;2023-07-30T08:01:32;20.23;;;11.00;;
13698;SDS011;6921;53.642;9.956;2023-07-30T08:03:35;17.23;;;11.00;;
13698;SDS011;6921;53.642;9.956;2023-07-30T08:05:39;19.65;;;10.50;;
13698;SDS011;6921;53.642;9.956;2023-07-30T08:07:41;14.35;;;9.82;;
13698;SDS011;6921;53.642;9.956;2023-07-30T08:09:44;17.67;;;10.10;;
13698;SDS011;6921;53.642;9.956;2023-07-30T08:11:47;19.88;;;11.20;;
13698;SDS011;6921;53.642;9.956;2023-07-30T08:13:50;19.35;;;9.70;;
13698;SDS011;6921;53.642;9.956;2023-07-30T08:15:53;19.45;;;9.75;;
13698;SDS011;6921;53.642;9.956;2023-07-30T08:17:58;17.27;;;9.88;;
13698;SDS011;6921;53.642;9.956;2023-07-30T08:20:01;15.35;;;8.48;;
13698;SDS011;6921;53.642;9.956;2023-07-30T08:22:04;16.23;;;8.80;;
13698;SDS011;6921;53.642;9.956;2023-07-30T08:24:07;18.58;;;7.97;;
13698;SDS011;6921;53.642;9.956;2023-07-30T08:26:10;13.45;;;7.90;;
13698;SDS011;6921;53.642;9.956;2023-07-30T08:28:13;15.85;;;9.35;;
13698;SDS011;6921;53.642;9.956;2023-07-30T08:30:17;12.98;;;8.25;;
13698;SDS011;6921;53.642;9.956;2023-07-30T08:32:20;17.92;;;8.25;;
13698;SDS011;6921;53.642;9.956;2023-07-30T08:34:25;16.65;;;7.93;;
13698;SDS011;6921;53.642;9.956;2023-07-30T08:36:28;12.95;;;8.68;;
13698;SDS011;6921;53.642;9.956;2023-07-30T08:38:31;12.88;;;8.77;;
13698;SDS011;6921;53.642;9.956;2023-07-30T08:40:34;15.88;;;9.00;;
13698;SDS011;6921;53.642;9.956;2023-07-30T08:42:37;16.13;;;9.50;;
13698;SDS011;6921;53.642;9.956;2023-07-30T08:44:40;13.07;;;9.75;;
13698;SDS011;6921;53.642;9.956;2023-07-30T08:46:43;13.32;;;9.45;;
13698;SDS011;6921;53.642;9.956;2023-07-30T08:48:46;15.27;;;9.82;;
13698;SDS011;6921;53.642;9.956;2023-07-30T08:50:53;15.73;;;8.18;;
13698;SDS011;6921;53.642;9.956;2023-07-30T08:52:59;17.15;;;8.88;;
13698;SDS011;6921;53.642;9.956;2023-07-30T08:55:05;12.68;;;7.75;;
13698;SDS011;6921;53.642;9.956;2023-07-30T08:57:09;14.52;;;6.97;;
13698;SDS011;6921;53.642;9.956;2023-07-30T08:59:12;13.00;;;6.10;;
13698;SDS011;6921;53.642;9.956;2023-07-30T09:01:17;14.52;;;5.82;;
13698;SDS011;6921;53.642;9.956;2023-07-30T09:03:21;13.68;;;5.35;;
13698;SDS011;6921;53.642;9.956;2023-07-30T09:05:26;13.27;;;6.00;;
13698;SDS011;6921;53.642;9.956;2023-07-30T09:07:32;11.65;;;5.68;;
13698;SDS011;6921;53.642;9.956;2023-07-30T09:09:34;12.48;;;5.18;;
13698;SDS011;6921;53.642;9.956;2023-07-30T09:11:37;11.18;;;5.22;;
13698;SDS011;6921;53.642;9.956;2023-07-30T09:13:41;8.23;;;4.60;;
13698;SDS011;6921;53.642;9.956;2023-07-30T09:15:45;11.88;;;5.20;;
13698;SDS011;6921;53.642;9.956;2023-07-30T09:17:54;10.88;;;4.85;;
13698;SDS011;6921;53.642;9.956;2023-07-30T09:19:58;10.35;;;4.28;;
13698;SDS011;6921;53.642;9.956;2023-07-30T09:22:03;12.82;;;4.40;;
13698;SDS011;6921;53.642;9.956;2023-07-30T09:24:09;9.68;;;4.60;;
13698;SDS011;6921;53.642;9.956;2023-07-30T09:26:12;11.55;;;4.38;;
13698;SDS011;6921;53.642;9.956;2023-07-30T09:28:16;10.55;;;4.30;;
13698;SDS011;6921;53.642;9.956;2023-07-30T09:30:22;10.68;;;3.75;;
13698;SDS011;6921;53.642;9.956;2023-07-30T09:32:26;9.43;;;4.20;;
13698;SDS011;6921;53.642;9.956;2023-07-30T09:34:29;11.05;;;4.82;;
13698;SDS011;6921;53.642;9.956;2023-07-30T09:36:34;7.38;;;3.55;;
13698;SDS011;6921;53.642;9.956;2023-07-30T09:38:41;8.93;;;3.70;;
13698;SDS011;6921;53.642;9.956;2023-07-30T09:40:46;12.93;;;4.20;;
13698;SDS011;6921;53.642;9.956;2023-07-30T09:42:50;11.43;;;3.97;;
13698;SDS011;6921;53.642;9.956;2023-07-30T09:44:54;11.52;;;4.13;;
13698;SDS011;6921;53.642;9.956;2023-07-30T09:47:01;10.05;;;4.03;;
13698;SDS011;6921;53.642;9.956;2023-07-30T09:49:08;13.38;;;4.20;;
13698;SDS011;6921;53.642;9.956;2023-07-30T09:51:10;11.13;;;4.63;;
13698;SDS011;6921;53.642;9.956;2023-07-30T09:53:13;12.43;;;5.05;;
13698;SDS011;6921;53.642;9.956;2023-07-30T09:55:18;12.52;;;5.20;;
13698;SDS011;6921;53.642;9.956;2023-07-30T09:57:22;11.60;;;4.93;;
13698;SDS011;6921;53.642;9.956;2023-07-30T09:59:25;13.45;;;4.85;;
13698;SDS011;6921;53.642;9.956;2023-07-30T10:01:28;9.48;;;4.55;;
13698;SDS011;6921;53.642;9.956;2023-07-30T10:03:34;9.55;;;4.40;;
13698;SDS011;6921;53.642;9.956;2023-07-30T10:05:38;10.38;;;4.97;;
13698;SDS011;6921;53.642;9.956;2023-07-30T10:07:44;12.82;;;5.88;;
13698;SDS011;6921;53.642;9.956;2023-07-30T10:09:54;12.77;;;5.40;;
13698;SDS011;6921;53.642;9.956;2023-07-30T10:12:02;9.25;;;5.47;;
13698;SDS011;6921;53.642;9.956;2023-07-30T10:14:08;10.80;;;5.45;;
13698;SDS011;6921;53.642;9.956;2023-07-30T10:16:11;10.93;;;6.05;;
13698;SDS011;6921;53.642;9.956;2023-07-30T10:18:16;13.10;;;5.75;;
13698;SDS011;6921;53.642;9.956;2023-07-30T10:20:19;10.52;;;5.72;;
13698;SDS011;6921;53.642;9.956;2023-07-30T10:22:23;11.10;;;6.00;;
13698;SDS011;6921;53.642;9.956;2023-07-30T10:24:26;10.55;;;5.78;;
13698;SDS011;6921;53.642;9.956;2023-07-30T10:26:30;9.80;;;5.55;;
13698;SDS011;6921;53.642;9.956;2023-07-30T10:28:35;14.18;;;5.65;;
13698;SDS011;6921;53.642;9.956;2023-07-30T10:30:41;8.77;;;5.20;;
13698;SDS011;6921;53.642;9.956;2023-07-30T10:32:59;10.52;;;5.95;;
13698;SDS011;6921;53.642;9.956;2023-07-30T10:35:06;12.00;;;5.88;;
13698;SDS011;6921;53.642;9.956;2023-07-30T10:37:10;9.20;;;6.00;;
13698;SDS011;6921;53.642;9.956;2023-07-30T10:39:14;11.07;;;5.80;;
13698;SDS011;6921;53.642;9.956;2023-07-30T10:41:18;11.43;;;5.93;;
13698;SDS011;6921;53.642;9.956;2023-07-30T10:43:22;11.40;;;5.88;;
13698;SDS011;6921;53.642;9.956;2023-07-30T10:45:29;7.82;;;5.05;;
13698;SDS011;6921;53.642;9.956;2023-07-30T10:47:46;9.70;;;5.47;;
13698;SDS011;6921;53.642;9.956;2023-07-30T10:49:49;10.45;;;5.18;;
13698;SDS011;6921;53.642;9.956;2023-07-30T10:51:54;7.40;;;5.00;;
13698;SDS011;6921;53.642;9.956;2023-07-30T10:53:58;8.88;;;4.88;;
13698;SDS011;6921;53.642;9.956;2023-07-30T10:56:01;10.93;;;4.57;;
13698;SDS011;6921;53.642;9.956;2023-07-30T10:58:08;9.15;;;4.40;;
13698;SDS011;6921;53.642;9.956;2023-07-30T11:00:12;8.13;;;4.32;;
13698;SDS011;6921;53.642;9.956;2023-07-30T11:02:15;8.45;;;3.83;;
13698;SDS011;6921;53.642;9.956;2023-07-30T11:04:20;7.03;;;3.55;;
13698;SDS011;6921;53.642;9.956;2023-07-30T11:06:23;10.82;;;3.10;;
13698;SDS011;6921;53.642;9.956;2023-07-30T11:08:32;5.82;;;2.97;;
13698;SDS011;6921;53.642;9.956;2023-07-30T11:10:41;7.75;;;3.10;;
13698;SDS011;6921;53.642;9.956;2023-07-30T11:12:47;5.57;;;2.70;;
13698;SDS011;6921;53.642;9.956;2023-07-30T11:14:51;6.45;;;2.55;;
13698;SDS011;6921;53.642;9.956;2023-07-30T11:16:54;8.25;;;2.50;;
13698;SDS011;6921;53.642;9.956;2023-07-30T11:18:59;5.05;;;2.50;;
13698;SDS011;6921;53.642;9.956;2023-07-30T11:21:04;5.93;;;2.33;;
13698;SDS011;6921;53.642;9.956;2023-07-30T11:23:18;4.32;;;2.20;;
13698;SDS011;6921;53.642;9.956;2023-07-30T11:25:22;7.22;;;2.47;;
13698;SDS011;6921;53.642;9.956;2023-07-30T11:27:26;4.15;;;2.20;;
13698;SDS011;6921;53.642;9.956;2023-07-30T11:29:32;5.38;;;2.28;;
13698;SDS011;6921;53.642;9.956;2023-07-30T11:31:35;8.35;;;2.55;;
13698;SDS011;6921;53.642;9.956;2023-07-30T11:33:39;5.50;;;2.08;;
13698;SDS011;6921;53.642;9.956;2023-07-30T11:35:43;3.67;;;1.88;;
13698;SDS011;6921;53.642;9.956;2023-07-30T11:37:47;5.20;;;1.95;;
13698;SDS011;6921;53.642;9.956;2023-07-30T11:39:50;7.53;;;2.35;;
13698;SDS011;6921;53.642;9.956;2023-07-30T11:41:55;6.05;;;2.10;;
13698;SDS011;6921;53.642;9.956;2023-07-30T11:44:00;6.43;;;2.28;;
13698;SDS011;6921;53.642;9.956;2023-07-30T11:46:07;4.32;;;1.83;;
13698;SDS011;6921;53.642;9.956;2023-07-30T11:48:11;5.65;;;2.13;;
13698;SDS011;6921;53.642;9.956;2023-07-30T11:50:15;5.85;;;2.20;;
13698;SDS011;6921;53.642;9.956;2023-07-30T11:52:19;5.18;;;2.75;;
13698;SDS011;6921;53.642;9.956;2023-07-30T11:54:23;9.20;;;2.40;;
13698;SDS011;6921;53.642;9.956;2023-07-30T11:56:27;3.95;;;2.17;;
13698;SDS011;6921;53.642;9.956;2023-07-30T11:58:31;4.85;;;2.10;;
13698;SDS011;6921;53.642;9.956;2023-07-30T12:00:33;4.90;;;2.00;;
13698;SDS011;6921;53.642;9.956;2023-07-30T12:02:37;7.05;;;2.25;;
13698;SDS011;6921;53.642;9.956;2023-07-30T12:04:43;5.55;;;1.85;;
13698;SDS011;6921;53.642;9.956;2023-07-30T12:06:56;4.45;;;1.60;;
13698;SDS011;6921;53.642;9.956;2023-07-30T12:08:59;4.97;;;1.95;;
13698;SDS011;6921;53.642;9.956;2023-07-30T12:11:05;5.93;;;1.80;;
13698;SDS011;6921;53.642;9.956;2023-07-30T12:13:12;4.68;;;2.00;;
13698;SDS011;6921;53.642;9.956;2023-07-30T12:15:16;6.47;;;2.00;;
13698;SDS011;6921;53.642;9.956;2023-07-30T12:17:21;6.47;;;2.13;;
13698;SDS011;6921;53.642;9.956;2023-07-30T12:19:24;5.72;;;1.98;;
13698;SDS011;6921;53.642;9.956;2023-07-30T12:21:28;5.72;;;2.03;;
13698;SDS011;6921;53.642;9.956;2023-07-30T12:23:31;4.50;;;2.22;;
13698;SDS011;6921;53.642;9.956;2023-07-30T12:25:35;7.50;;;2.58;;
13698;SDS011;6921;53.642;9.956;2023-07-30T12:27:40;5.57;;;2.20;;
13698;SDS011;6921;53.642;9.956;2023-07-30T12:29:43;4.78;;;2.17;;
13698;SDS011;6921;53.642;9.956;2023-07-30T12:31:46;8.02;;;2.13;;